TimeEDT,TemperatureF,Dew PointF,Humidity,Sea Level PressureIn,VisibilityMPH,Wind Direction,Wind SpeedMPH,Gust SpeedMPH,PrecipitationIn,Events,Conditions,WindDirDegrees,DateUTC
12:53 AM,75.0,72.0,90,30.16,10.0,Calm,Calm,-,N/A,,Clear,0,2013-08-22 04:53:00
1:53 AM,73.9,71.1,91,30.16,10.0,Calm,Calm,-,N/A,,Clear,0,2013-08-22 05:53:00
2:53 AM,73.0,71.1,93,30.15,8.0,Calm,Calm,-,N/A,,Clear,0,2013-08-22 06:53:00
3:53 AM,73.0,71.1,93,30.15,10.0,Calm,Calm,-,N/A,,Clear,0,2013-08-22 07:53:00
4:53 AM,73.0,71.1,93,30.14,8.0,Calm,Calm,-,N/A,,Clear,0,2013-08-22 08:53:00
5:53 AM,73.0,71.1,93,30.14,9.0,Calm,Calm,-,N/A,,Clear,0,2013-08-22 09:53:00
6:53 AM,73.0,71.1,93,30.15,8.0,Calm,Calm,-,N/A,,Clear,0,2013-08-22 10:53:00
7:53 AM,73.9,72.0,93,30.16,7.0,Calm,Calm,-,N/A,,Clear,0,2013-08-22 11:53:00
8:53 AM,75.9,72.0,87,30.16,10.0,Calm,Calm,-,N/A,,Clear,0,2013-08-22 12:53:00
9:53 AM,80.1,73.9,81,30.16,10.0,Variable,3.5,-,N/A,,Clear,0,2013-08-22 13:53:00
10:53 AM,82.9,73.0,72,30.16,10.0,NNW,5.8,-,N/A,,Clear,330,2013-08-22 14:53:00
11:53 AM,86.0,71.1,61,30.14,10.0,NNW,6.9,-,N/A,,Clear,330,2013-08-22 15:53:00
12:53 PM,87.1,71.1,59,30.13,10.0,NNW,3.5,-,N/A,,Scattered Clouds,340,2013-08-22 16:53:00
1:53 PM,88.0,70.0,55,30.10,10.0,WNW,5.8,-,N/A,,Partly Cloudy,290,2013-08-22 17:53:00
2:53 PM,90.0,69.1,50,30.07,10.0,Variable,3.5,-,N/A,,Mostly Cloudy,0,2013-08-22 18:53:00
3:53 PM,90.0,70.0,52,30.04,10.0,SSW,4.6,-,N/A,,Scattered Clouds,200,2013-08-22 19:53:00
4:53 PM,89.1,69.1,52,30.04,10.0,SSW,3.5,-,N/A,,Scattered Clouds,210,2013-08-22 20:53:00
5:53 PM,84.9,73.0,67,30.04,10.0,SW,8.1,-,0.00,,Clear,230,2013-08-22 21:53:00
6:53 PM,82.9,71.1,67,30.03,10.0,SSE,5.8,-,N/A,,Clear,160,2013-08-22 22:53:00
7:53 PM,80.1,72.0,76,30.04,10.0,Calm,Calm,-,N/A,,Partly Cloudy,0,2013-08-22 23:53:00
8:53 PM,75.0,70.0,84,30.07,10.0,Calm,Calm,-,0.00,,Scattered Clouds,0,2013-08-23 00:53:00
9:53 PM,73.9,71.1,91,30.07,10.0,Calm,Calm,-,0.01,,Partly Cloudy,0,2013-08-23 01:53:00
10:53 PM,73.9,71.1,91,30.07,10.0,Calm,Calm,-,N/A,,Clear,0,2013-08-23 02:53:00
11:53 PM,73.9,71.1,91,30.05,10.0,SW,3.5,-,N/A,,Clear,220,2013-08-23 03:53:00